Time;durP1;ratioP1;P1;durP2;ratioP2;P2;SDS_P1;SDS_P2;PMS_P1;PMS_P2;Temp;Humidity;BMP_temperature;BMP_pressure;BME280_temperature;BME280_humidity;BME280_pressure;Samples;Min_cycle;Max_cycle;Signal;HPM_P1;HPM_P2
2021/04/24 00:00:25;;;;;;;8.40;6.20;;;7.40;99.90;;;;;;5096529;28;20194;-66
2021/04/24 00:02:52;;;;;;;13.27;6.70;;;7.40;99.90;;;;;;5096127;28;20183;-66
2021/04/24 00:05:27;;;;;;;13.05;6.45;;;7.40;99.90;;;;;;5095876;28;20644;-66
2021/04/24 00:07:56;;;;;;;9.60;6.18;;;7.20;99.90;;;;;;5095727;28;20177;-66
2021/04/24 00:10:22;;;;;;;9.90;5.50;;;7.40;99.90;;;;;;5095908;28;20238;-67
2021/04/24 00:12:48;;;;;;;12.40;6.47;;;7.60;99.90;;;;;;5095859;28;20461;-66
2021/04/24 00:15:15;;;;;;;12.70;5.85;;;7.40;99.90;;;;;;5095647;28;20221;-66
2021/04/24 00:17:41;;;;;;;10.70;6.57;;;7.40;99.90;;;;;;5095919;28;20176;-66
2021/04/24 00:20:09;;;;;;;12.93;5.40;;;7.60;99.90;;;;;;5095890;28;20512;-66
2021/04/24 00:22:35;;;;;;;12.82;5.60;;;7.60;99.90;;;;;;5095338;28;20194;-67
2021/04/24 00:25:00;;;;;;;11.50;7.00;;;7.50;99.90;;;;;;5095782;28;20187;-66
2021/04/24 00:27:26;;;;;;;10.80;6.70;;;7.50;99.90;;;;;;5095517;28;20213;-66
2021/04/24 00:29:52;;;;;;;10.40;5.67;;;7.40;99.90;;;;;;5095823;28;20250;-66
2021/04/24 00:32:17;;;;;;;13.17;6.20;;;7.40;99.90;;;;;;5095376;28;20595;-67
2021/04/24 00:34:43;;;;;;;8.73;6.63;;;7.30;99.90;;;;;;5095301;28;20545;-66
2021/04/24 00:37:09;;;;;;;12.43;6.47;;;7.50;99.90;;;;;;5095282;28;20168;-66
2021/04/24 00:39:35;;;;;;;10.98;5.78;;;7.30;99.90;;;;;;5095289;28;20660;-67
2021/04/24 00:42:00;;;;;;;10.47;5.40;;;7.20;99.90;;;;;;5095275;28;20171;-66
2021/04/24 00:44:26;;;;;;;10.13;5.13;;;7.50;99.90;;;;;;5095045;28;20198;-66
2021/04/24 00:46:51;;;;;;;12.63;4.90;;;7.80;99.90;;;;;;5095340;28;20171;-66
2021/04/24 00:49:17;;;;;;;13.07;5.80;;;7.80;99.90;;;;;;5095048;28;20203;-67
2021/04/24 00:51:42;;;;;;;9.00;5.07;;;7.80;99.90;;;;;;5095049;28;20520;-66
2021/04/24 00:54:08;;;;;;;14.40;5.70;;;8.00;99.90;;;;;;5094892;28;20218;-66
2021/04/24 00:56:35;;;;;;;8.20;5.00;;;8.10;99.90;;;;;;5094999;28;20171;-67
2021/04/24 00:59:01;;;;;;;12.30;5.57;;;7.80;99.90;;;;;;5094870;28;20217;-67
2021/04/24 01:01:27;;;;;;;6.03;4.10;;;7.60;99.90;;;;;;5093808;28;20168;-67
2021/04/24 01:03:53;;;;;;;7.17;4.37;;;7.90;99.90;;;;;;5094884;28;20261;-67
2021/04/24 01:06:18;;;;;;;7.75;4.75;;;7.90;99.90;;;;;;5094811;28;20972;-67
2021/04/24 01:08:44;;;;;;;11.03;4.70;;;7.70;99.90;;;;;;5093293;28;20195;-67
2021/04/24 01:11:10;;;;;;;8.53;4.33;;;7.80;99.90;;;;;;5094687;28;20233;-67
2021/04/24 01:13:36;;;;;;;11.37;5.10;;;7.50;99.90;;;;;;5094490;28;20282;-67
2021/04/24 01:16:01;;;;;;;26.03;5.67;;;7.50;99.90;;;;;;5094580;28;20169;-67
2021/04/24 01:18:27;;;;;;;14.07;5.20;;;7.50;99.90;;;;;;5094511;28;20195;-67
2021/04/24 01:20:56;;;;;;;12.80;5.50;;;7.40;99.90;;;;;;5094709;28;20891;-67
2021/04/24 01:23:22;;;;;;;8.80;4.10;;;7.30;99.90;;;;;;5094377;28;20238;-67
2021/04/24 01:25:49;;;;;;;6.63;4.20;;;7.30;99.90;;;;;;5094285;28;20163;-67
2021/04/24 01:28:14;;;;;;;7.68;3.67;;;7.40;99.90;;;;;;5094287;28;20398;-67
2021/04/24 01:30:43;;;;;;;7.27;4.17;;;7.30;99.90;;;;;;5094234;28;20174;-67
2021/04/24 01:33:11;;;;;;;5.70;4.20;;;7.30;99.90;;;;;;5094102;28;20584;-67
2021/04/24 01:35:39;;;;;;;7.55;4.38;;;7.30;99.90;;;;;;5094079;28;20159;-67
2021/04/24 01:38:06;;;;;;;10.85;4.45;;;7.40;99.90;;;;;;5094119;28;20167;-67
2021/04/24 01:40:31;;;;;;;6.68;3.70;;;7.10;99.90;;;;;;5095141;28;20179;-67
2021/04/24 01:42:57;;;;;;;13.83;4.67;;;7.10;99.90;;;;;;5093911;28;20175;-67
2021/04/24 01:45:24;;;;;;;6.20;3.93;;;7.10;99.90;;;;;;5093985;28;20182;-67
2021/04/24 01:47:50;;;;;;;8.18;4.05;;;7.20;99.90;;;;;;5094211;28;20210;-66
2021/04/24 01:50:21;;;;;;;7.63;4.28;;;7.10;99.90;;;;;;5093861;28;20183;-67
2021/04/24 01:52:49;;;;;;;11.50;3.97;;;7.10;99.90;;;;;;5093957;28;20540;-67
2021/04/24 01:55:19;;;;;;;8.68;4.13;;;7.20;99.90;;;;;;5093778;28;20167;-67
2021/04/24 01:57:47;;;;;;;7.95;4.63;;;7.30;99.90;;;;;;5094356;28;20160;-67
2021/04/24 02:00:22;;;;;;;8.40;4.32;;;7.20;99.90;;;;;;5093757;28;20167;-67
2021/04/24 02:02:48;;;;;;;6.88;4.30;;;7.10;99.90;;;;;;5093534;28;20577;-67
2021/04/24 02:05:14;;;;;;;13.00;4.28;;;7.10;99.90;;;;;;5092397;28;20229;-67
2021/04/24 02:07:40;;;;;;;12.15;4.68;;;6.90;99.90;;;;;;5093682;28;20207;-67
2021/04/24 02:10:11;;;;;;;11.03;4.47;;;7.00;99.90;;;;;;5093544;28;20234;-67
2021/04/24 02:12:39;;;;;;;8.88;4.53;;;6.90;99.90;;;;;;5093384;28;20644;-67
2021/04/24 02:15:07;;;;;;;47.13;25.90;;;6.80;99.90;;;;;;5093802;28;20188;-66
2021/04/24 02:17:32;;;;;;;17.05;5.65;;;6.80;99.90;;;;;;5093319;28;20251;-66
2021/04/24 02:19:58;;;;;;;13.60;5.80;;;7.00;99.90;;;;;;5093811;28;20195;-67
2021/04/24 02:22:24;;;;;;;10.07;4.53;;;7.20;99.90;;;;;;5093658;28;20221;-67
2021/04/24 02:24:57;;;;;;;10.40;4.10;;;6.90;99.90;;;;;;5093338;28;20672;-67
2021/04/24 02:27:23;;;;;;;7.75;4.25;;;6.80;99.90;;;;;;5093426;28;20160;-67
2021/04/24 02:29:50;;;;;;;11.67;4.20;;;7.00;99.90;;;;;;5093567;28;20190;-66
2021/04/24 02:32:17;;;;;;;10.50;4.00;;;6.80;99.90;;;;;;5093424;28;20417;-66
2021/04/24 02:34:46;;;;;;;10.90;4.13;;;6.70;99.90;;;;;;5093055;28;20294;-67
2021/04/24 02:37:14;;;;;;;8.38;4.18;;;6.50;99.90;;;;;;5093165;28;20160;-67
2021/04/24 02:39:43;;;;;;;10.98;5.10;;;6.50;99.90;;;;;;5093447;28;20166;-67
2021/04/24 02:42:12;;;;;;;6.55;4.72;;;6.60;99.90;;;;;;5093112;28;20186;-67
2021/04/24 02:44:38;;;;;;;28.00;8.07;;;6.60;99.90;;;;;;5093092;28;20667;-67
2021/04/24 02:47:04;;;;;;;14.60;4.63;;;6.70;99.90;;;;;;5093397;28;20178;-67
2021/04/24 02:49:31;;;;;;;8.95;4.97;;;6.60;99.90;;;;;;5093366;28;20183;-67
2021/04/24 02:51:57;;;;;;;10.98;4.45;;;6.50;99.90;;;;;;5092999;28;20213;-67
2021/04/24 02:54:24;;;;;;;7.40;4.13;;;6.50;99.90;;;;;;5092826;28;20763;-67
2021/04/24 02:56:51;;;;;;;10.98;3.83;;;6.60;99.90;;;;;;5092963;28;20175;-67
2021/04/24 02:59:17;;;;;;;7.53;4.05;;;6.60;99.90;;;;;;5093191;28;20220;-67
2021/04/24 03:01:44;;;;;;;8.30;4.70;;;6.60;99.90;;;;;;5092900;28;20164;-67
2021/04/24 03:04:11;;;;;;;8.20;4.85;;;6.60;99.90;;;;;;5092728;28;20914;-66
2021/04/24 03:06:37;;;;;;;10.55;4.30;;;6.40;99.90;;;;;;5092733;28;20175;-66
2021/04/24 03:09:03;;;;;;;9.63;4.70;;;6.40;99.90;;;;;;5092853;28;20175;-67
2021/04/24 03:11:29;;;;;;;10.32;5.38;;;6.40;99.90;;;;;;5091493;28;20171;-67
2021/04/24 03:13:55;;;;;;;7.95;4.00;;;6.40;99.90;;;;;;5092623;28;20245;-67
2021/04/24 03:16:21;;;;;;;12.27;4.50;;;6.30;99.90;;;;;;5092729;28;20164;-67
2021/04/24 03:18:47;;;;;;;8.10;4.60;;;6.30;99.90;;;;;;5092800;28;20175;-67
2021/04/24 03:21:12;;;;;;;14.97;4.70;;;6.30;99.90;;;;;;5092762;28;20705;-67
2021/04/24 03:23:38;;;;;;;11.57;4.33;;;6.40;99.90;;;;;;5091518;28;20604;-67
2021/04/24 03:26:03;;;;;;;6.43;4.27;;;6.40;99.90;;;;;;5095408;28;20167;-67
2021/04/24 03:28:29;;;;;;;9.83;4.10;;;6.30;99.90;;;;;;5096863;28;20190;-67
2021/04/24 03:30:54;;;;;;;11.13;4.70;;;6.30;99.90;;;;;;5096810;28;20406;-67
2021/04/24 03:33:20;;;;;;;11.13;3.57;;;6.10;99.90;;;;;;5097061;28;20222;-67
2021/04/24 03:35:46;;;;;;;11.57;4.60;;;6.10;99.90;;;;;;5096613;28;20610;-67
2021/04/24 03:38:11;;;;;;;8.00;4.30;;;6.00;99.90;;;;;;5097027;28;20160;-67
2021/04/24 03:40:37;;;;;;;9.97;4.17;;;6.00;99.90;;;;;;5095260;28;20190;-67
2021/04/24 03:43:03;;;;;;;12.80;4.77;;;6.20;99.90;;;;;;5096454;28;20659;-67
2021/04/24 03:45:30;;;;;;;11.00;4.77;;;6.30;99.90;;;;;;5096484;28;20418;-67
2021/04/24 03:47:56;;;;;;;9.18;3.63;;;6.20;99.90;;;;;;5096649;28;20172;-67
2021/04/24 03:50:24;;;;;;;7.97;4.20;;;5.90;99.90;;;;;;5096630;28;20268;-67
2021/04/24 03:52:50;;;;;;;15.27;4.60;;;5.90;99.90;;;;;;5096050;28;20198;-67
2021/04/24 03:55:17;;;;;;;7.25;4.25;;;5.80;99.90;;;;;;5096119;28;20171;-67
2021/04/24 03:57:47;;;;;;;9.85;4.47;;;5.90;99.90;;;;;;5096373;28;20170;-67
2021/04/24 04:00:17;;;;;;;10.20;5.18;;;6.00;99.90;;;;;;5096079;28;20224;-67
2021/04/24 04:02:59;;;;;;;10.85;4.88;;;6.20;99.90;;;;;;5096274;28;20244;-67
2021/04/24 04:05:32;;;;;;;11.23;5.13;;;6.00;99.90;;;;;;5096316;28;20633;-67
2021/04/24 04:07:59;;;;;;;12.88;4.40;;;5.90;99.90;;;;;;5095981;28;20183;-67
2021/04/24 04:10:25;;;;;;;10.20;4.30;;;5.80;99.90;;;;;;5096684;28;20239;-66
2021/04/24 04:12:51;;;;;;;13.95;4.57;;;5.80;99.90;;;;;;5095856;28;20191;-67
2021/04/24 04:15:19;;;;;;;7.10;4.37;;;5.90;99.90;;;;;;5096046;28;20230;-67
2021/04/24 04:18:08;;;;;;;9.00;4.78;;;5.80;99.90;;;;;;5096090;28;20381;-67
2021/04/24 04:20:36;;;;;;;12.60;5.70;;;5.80;99.90;;;;;;5096002;28;20186;-67
2021/04/24 04:23:01;;;;;;;7.63;5.00;;;5.80;99.90;;;;;;5095565;28;20721;-66
2021/04/24 04:25:27;;;;;;;7.70;4.23;;;5.80;99.90;;;;;;5095602;28;20176;-67
2021/04/24 04:27:53;;;;;;;13.07;4.73;;;5.80;99.90;;;;;;5095797;28;20167;-67
2021/04/24 04:30:20;;;;;;;7.85;4.53;;;5.80;99.90;;;;;;5096200;28;20214;-67
2021/04/24 04:32:46;;;;;;;7.50;4.30;;;5.80;99.90;;;;;;5095294;28;20179;-67
2021/04/24 04:35:12;;;;;;;9.63;5.00;;;5.90;99.90;;;;;;5095464;28;20213;-67
2021/04/24 04:37:38;;;;;;;11.23;5.03;;;5.80;99.90;;;;;;5095111;28;20574;-67
2021/04/24 04:40:05;;;;;;;8.87;4.97;;;5.90;99.90;;;;;;5095780;28;20160;-67
2021/04/24 04:42:31;;;;;;;10.38;5.20;;;5.90;99.90;;;;;;5095618;28;20556;-67
2021/04/24 04:44:56;;;;;;;5.63;3.90;;;6.00;99.90;;;;;;5096010;28;20187;-67
2021/04/24 04:47:22;;;;;;;13.83;5.07;;;6.10;99.90;;;;;;5095159;28;20172;-67
2021/04/24 04:49:48;;;;;;;9.87;4.57;;;5.90;99.90;;;;;;5095140;28;20682;-67
2021/04/24 04:52:13;;;;;;;13.73;5.43;;;6.10;99.90;;;;;;5095108;28;20164;-67
2021/04/24 04:54:39;;;;;;;7.90;3.93;;;6.20;99.90;;;;;;5094845;28;20199;-67
2021/04/24 04:57:05;;;;;;;9.40;4.87;;;6.10;99.90;;;;;;5094975;28;20710;-67
2021/04/24 04:59:30;;;;;;;9.70;5.00;;;6.20;99.90;;;;;;5095043;28;20251;-67
2021/04/24 05:01:56;;;;;;;6.20;3.47;;;5.90;99.90;;;;;;5094901;28;20386;-67
2021/04/24 05:04:22;;;;;;;7.70;4.23;;;6.10;99.90;;;;;;5094734;28;20219;-67
2021/04/24 05:06:50;;;;;;;11.43;4.80;;;6.10;99.90;;;;;;5095115;28;20168;-67
2021/04/24 05:09:18;;;;;;;7.40;4.20;;;6.10;99.90;;;;;;5094588;28;20417;-67
2021/04/24 05:11:44;;;;;;;11.13;4.65;;;6.10;99.90;;;;;;5094747;28;20164;-67
2021/04/24 05:14:10;;;;;;;9.35;4.63;;;6.30;99.90;;;;;;5094702;28;20290;-67
2021/04/24 05:16:36;;;;;;;7.63;4.47;;;6.30;99.90;;;;;;5093702;28;20195;-67
2021/04/24 05:19:01;;;;;;;13.03;5.83;;;6.40;99.90;;;;;;5095017;28;20175;-66
2021/04/24 05:21:27;;;;;;;6.83;3.60;;;6.30;99.90;;;;;;5095534;28;20640;-67
2021/04/24 05:23:53;;;;;;;6.55;3.85;;;6.50;99.90;;;;;;5094342;28;20676;-67
2021/04/24 05:26:19;;;;;;;8.02;4.05;;;6.10;99.90;;;;;;5094652;28;20202;-67
2021/04/24 05:28:44;;;;;;;9.60;3.93;;;6.30;99.90;;;;;;5094865;28;20528;-67
2021/04/24 05:31:10;;;;;;;8.20;4.67;;;6.30;99.90;;;;;;5094562;28;20168;-67
2021/04/24 05:33:36;;;;;;;7.50;4.47;;;6.40;99.90;;;;;;5094155;28;20296;-67
2021/04/24 05:36:06;;;;;;;6.97;3.53;;;6.50;99.90;;;;;;5092848;28;20410;-66
2021/04/24 05:38:32;;;;;;;10.98;4.47;;;6.50;99.90;;;;;;5094460;28;20682;-67
2021/04/24 05:40:58;;;;;;;9.00;3.43;;;6.70;99.90;;;;;;5094195;28;20183;-67
2021/04/24 05:43:24;;;;;;;6.93;3.53;;;6.90;99.90;;;;;;5094003;28;20191;-67
2021/04/24 05:45:50;;;;;;;10.83;3.90;;;6.70;99.90;;;;;;5093970;28;20163;-67
2021/04/24 05:48:15;;;;;;;6.90;3.90;;;6.70;99.90;;;;;;5093128;28;20175;-67
2021/04/24 05:50:41;;;;;;;10.30;4.50;;;6.80;99.90;;;;;;5093971;28;20171;-67
2021/04/24 05:53:06;;;;;;;10.03;4.27;;;6.80;99.90;;;;;;5093855;28;20210;-67
2021/04/24 05:55:32;;;;;;;9.30;3.57;;;7.00;99.90;;;;;;5094869;28;20252;-67
2021/04/24 05:57:57;;;;;;;7.97;3.83;;;6.80;99.90;;;;;;5093739;28;20214;-67
2021/04/24 06:00:24;;;;;;;6.23;3.40;;;6.70;99.90;;;;;;5093970;28;20628;-67
2021/04/24 06:02:50;;;;;;;8.68;3.58;;;6.90;99.90;;;;;;5093719;28;20658;-68
2021/04/24 06:05:17;;;;;;;10.98;4.53;;;7.20;99.90;;;;;;5094066;28;20175;-67
2021/04/24 06:07:43;;;;;;;5.55;2.70;;;7.30;99.90;;;;;;5094018;28;20527;-67
2021/04/24 06:10:12;;;;;;;7.15;4.28;;;7.10;99.90;;;;;;5093612;28;20177;-67
2021/04/24 06:12:39;;;;;;;11.85;3.70;;;7.20;99.90;;;;;;5093554;28;20175;-68
2021/04/24 06:15:06;;;;;;;4.43;3.22;;;7.30;99.90;;;;;;5094002;28;20191;-67
2021/04/24 06:17:32;;;;;;;7.05;3.00;;;7.40;99.90;;;;;;5093479;28;20168;-67
2021/04/24 06:19:57;;;;;;;7.93;3.10;;;7.60;99.90;;;;;;5093501;28;20240;-68
2021/04/24 06:22:23;;;;;;;7.87;3.90;;;7.70;99.90;;;;;;5093490;28;20167;-67
2021/04/24 06:24:48;;;;;;;11.63;3.73;;;7.90;99.90;;;;;;5093276;28;20195;-67
2021/04/24 06:27:15;;;;;;;6.67;3.17;;;8.20;99.90;;;;;;5093809;28;20171;-67
2021/04/24 06:29:41;;;;;;;8.48;3.80;;;8.00;99.90;;;;;;5093329;28;20644;-67
2021/04/24 06:32:07;;;;;;;9.43;4.03;;;8.30;99.90;;;;;;5092226;28;20180;-67
2021/04/24 06:34:32;;;;;;;9.43;3.93;;;8.60;99.90;;;;;;5093282;28;20286;-67
2021/04/24 06:36:57;;;;;;;9.33;3.83;;;8.50;99.90;;;;;;5093345;28;20195;-66
2021/04/24 06:39:23;;;;;;;6.20;3.43;;;8.30;99.90;;;;;;5093531;28;20220;-66
2021/04/24 06:41:49;;;;;;;4.63;3.20;;;8.20;99.90;;;;;;5092919;28;20306;-67
2021/04/24 06:44:16;;;;;;;5.37;2.90;;;8.50;99.90;;;;;;5092929;28;20199;-66
2021/04/24 06:46:41;;;;;;;8.77;3.70;;;8.70;99.90;;;;;;5093171;28;20181;-66
2021/04/24 06:49:07;;;;;;;10.57;3.97;;;8.80;99.90;;;;;;5093145;28;20613;-66
2021/04/24 06:51:32;;;;;;;7.90;3.40;;;9.00;99.90;;;;;;5093270;28;20326;-66
2021/04/24 06:53:58;;;;;;;8.60;3.73;;;9.00;99.90;;;;;;5091562;28;20230;-66
2021/04/24 06:56:23;;;;;;;4.70;3.53;;;9.20;99.90;;;;;;5093247;28;20246;-67
2021/04/24 06:58:49;;;;;;;8.03;3.27;;;8.80;99.90;;;;;;5093191;28;20509;-66
2021/04/24 07:01:14;;;;;;;6.03;3.17;;;9.00;99.90;;;;;;5093188;28;20174;-66
2021/04/24 07:03:40;;;;;;;6.30;3.43;;;9.30;99.90;;;;;;5093056;28;20188;-67
2021/04/24 07:06:06;;;;;;;6.57;3.23;;;9.30;99.90;;;;;;5092910;28;20167;-66
2021/04/24 07:08:31;;;;;;;9.87;3.20;;;9.00;99.90;;;;;;5092608;28;20198;-66
2021/04/24 07:10:57;;;;;;;8.17;3.93;;;8.60;99.90;;;;;;5092909;28;20175;-67
2021/04/24 07:13:23;;;;;;;7.77;3.60;;;9.10;99.90;;;;;;5092627;28;20200;-66
2021/04/24 07:15:48;;;;;;;11.17;4.00;;;9.00;99.90;;;;;;5092732;28;20634;-67
2021/04/24 07:18:14;;;;;;;6.37;2.80;;;9.10;99.90;;;;;;5092584;28;20663;-67
2021/04/24 07:20:39;;;;;;;6.80;3.30;;;9.00;99.90;;;;;;5092392;28;20168;-67
2021/04/24 07:23:05;;;;;;;8.57;3.57;;;9.40;99.90;;;;;;5092436;28;20655;-67
2021/04/24 07:25:31;;;;;;;6.40;2.97;;;9.60;99.90;;;;;;5092596;28;20198;-66
2021/04/24 07:27:56;;;;;;;5.03;2.90;;;9.20;99.90;;;;;;5092818;28;20177;-67
2021/04/24 07:30:22;;;;;;;5.50;3.67;;;9.60;99.90;;;;;;5092840;28;20178;-67
2021/04/24 07:32:48;;;;;;;7.93;3.53;;;9.50;99.90;;;;;;5092705;28;20171;-67
2021/04/24 07:35:14;;;;;;;7.30;4.00;;;9.30;99.90;;;;;;5092796;28;20408;-67
2021/04/24 07:37:39;;;;;;;6.70;3.27;;;9.80;99.90;;;;;;5092593;28;20205;-66
2021/04/24 07:40:06;;;;;;;5.60;3.17;;;9.80;99.90;;;;;;5092705;28;20417;-67
2021/04/24 07:42:32;;;;;;;5.37;2.87;;;10.00;99.90;;;;;;5092410;28;20191;-67
2021/04/24 07:44:57;;;;;;;4.87;1.93;;;9.50;99.90;;;;;;5092604;28;20441;-67
2021/04/24 07:47:23;;;;;;;4.17;2.87;;;10.00;99.90;;;;;;5092717;28;20182;-67
2021/04/24 07:49:48;;;;;;;7.47;3.13;;;10.20;99.90;;;;;;5092491;28;20653;-67
2021/04/24 07:52:15;;;;;;;3.73;2.70;;;10.40;99.90;;;;;;5092438;28;20206;-67
2021/04/24 07:54:43;;;;;;;3.53;3.07;;;10.60;99.90;;;;;;5092203;28;20199;-67
2021/04/24 07:57:13;;;;;;;5.67;2.47;;;10.60;99.90;;;;;;5092172;28;20406;-67
2021/04/24 07:59:39;;;;;;;3.83;2.40;;;10.40;99.90;;;;;;5092231;28;20441;-67
2021/04/24 08:02:05;;;;;;;6.30;2.83;;;10.10;99.90;;;;;;5092306;28;20420;-67
2021/04/24 08:04:31;;;;;;;7.97;3.20;;;10.30;99.90;;;;;;5092253;28;20429;-67
2021/04/24 08:06:56;;;;;;;4.40;2.50;;;10.70;99.90;;;;;;5090954;28;20179;-67
2021/04/24 08:09:22;;;;;;;6.40;2.93;;;10.90;99.90;;;;;;5092338;28;20648;-67
2021/04/24 08:11:48;;;;;;;5.70;2.47;;;10.80;99.90;;;;;;5094041;28;20175;-67
2021/04/24 08:14:13;;;;;;;4.40;2.57;;;10.90;99.90;;;;;;5095612;28;20241;-67
2021/04/24 08:16:39;;;;;;;8.10;3.17;;;11.00;99.90;;;;;;5095989;28;20171;-67
2021/04/24 08:19:04;;;;;;;8.23;2.90;;;10.70;99.90;;;;;;5095867;28;20180;-67
2021/04/24 08:21:30;;;;;;;4.77;3.30;;;11.00;99.90;;;;;;5096542;28;20246;-67
2021/04/24 08:24:00;;;;;;;9.47;3.50;;;11.10;99.90;;;;;;5095821;28;20667;-67
2021/04/24 08:26:28;;;;;;;10.20;2.97;;;11.40;99.90;;;;;;5095969;28;20444;-66
2021/04/24 08:28:53;;;;;;;6.07;3.03;;;11.60;99.90;;;;;;5095511;28;20500;-67
2021/04/24 08:31:19;;;;;;;4.00;3.10;;;11.20;99.90;;;;;;5096118;28;20437;-67
2021/04/24 08:33:44;;;;;;;5.73;2.97;;;11.00;99.90;;;;;;5095441;28;20749;-66
2021/04/24 08:36:10;;;;;;;8.77;3.97;;;10.90;99.90;;;;;;5095354;28;20171;-67
2021/04/24 08:38:35;;;;;;;6.07;3.20;;;11.20;99.90;;;;;;5095394;28;20658;-67
2021/04/24 08:41:04;;;;;;;9.63;2.83;;;11.80;99.90;;;;;;5095380;28;20255;-67
2021/04/24 08:43:32;;;;;;;6.00;3.40;;;11.80;99.90;;;;;;5095116;28;20191;-67
2021/04/24 08:46:01;;;;;;;6.30;4.10;;;11.80;99.90;;;;;;5095059;28;20414;-67
2021/04/24 08:48:27;;;;;;;8.33;3.23;;;11.50;99.90;;;;;;5095108;28;20429;-67
2021/04/24 08:50:54;;;;;;;9.23;3.50;;;11.10;99.90;;;;;;5095833;28;20440;-66
2021/04/24 08:53:20;;;;;;;5.03;2.90;;;11.50;99.90;;;;;;5094626;28;20232;-67
2021/04/24 08:55:48;;;;;;;8.10;3.60;;;11.90;99.90;;;;;;5094738;28;20488;-67
2021/04/24 08:58:14;;;;;;;5.53;3.63;;;12.00;99.90;;;;;;5094725;28;20402;-67
2021/04/24 09:00:42;;;;;;;9.03;3.63;;;11.70;99.90;;;;;;5095142;28;20484;-67
2021/04/24 09:03:09;;;;;;;7.33;3.80;;;12.00;99.90;;;;;;5094860;28;20512;-68
2021/04/24 09:05:36;;;;;;;6.23;4.20;;;12.50;99.90;;;;;;5094790;28;20943;-67
2021/04/24 09:08:06;;;;;;;4.37;3.97;;;12.40;99.90;;;;;;5094547;28;20892;-67
2021/04/24 09:10:44;;;;;;;5.40;3.50;;;12.40;99.90;;;;;;5094984;28;20785;-68
2021/04/24 09:13:15;;;;;;;6.30;3.97;;;12.70;99.90;;;;;;5095281;28;20536;-67
2021/04/24 09:15:41;;;;;;;6.03;4.03;;;12.90;99.90;;;;;;5095093;28;20397;-67
2021/04/24 09:18:09;;;;;;;7.67;3.53;;;12.80;99.90;;;;;;5095024;28;20410;-67
2021/04/24 09:21:01;;;;;;;8.87;3.97;;;12.20;99.90;;;;;;5094396;28;20418;-67
2021/04/24 09:23:34;;;;;;;10.27;3.97;;;12.40;99.90;;;;;;5093361;28;20575;-66
2021/04/24 09:26:06;;;;;;;6.00;4.03;;;13.00;99.90;;;;;;5094653;28;20819;-67
2021/04/24 09:28:54;;;;;;;8.30;4.30;;;12.80;99.90;;;;;;5094320;28;20401;-67
2021/04/24 09:31:22;;;;;;;6.70;3.77;;;12.70;99.90;;;;;;5094112;28;20499;-67
2021/04/24 09:33:50;;;;;;;8.00;4.60;;;12.80;99.90;;;;;;5092675;28;20469;-67
2021/04/24 09:36:19;;;;;;;9.57;4.57;;;13.10;99.90;;;;;;5094448;28;20406;-67
2021/04/24 09:38:52;;;;;;;9.47;4.33;;;13.30;99.90;;;;;;5094125;28;20503;-67
2021/04/24 09:41:27;;;;;;;5.27;3.80;;;13.60;99.90;;;;;;5093031;28;20732;-67
2021/04/24 09:44:08;;;;;;;5.93;4.10;;;13.60;99.90;;;;;;5093895;28;20579;-67
2021/04/24 09:46:35;;;;;;;6.03;4.00;;;13.00;99.90;;;;;;5092789;28;20539;-67
2021/04/24 09:49:27;;;;;;;6.27;4.30;;;12.60;99.90;;;;;;5094068;28;20547;-67
2021/04/24 09:51:59;;;;;;;8.80;4.50;;;12.80;99.90;;;;;;5090044;28;20392;-67
2021/04/24 09:54:33;;;;;;;9.77;3.93;;;13.20;99.90;;;;;;5093608;28;20537;-67
2021/04/24 09:57:07;;;;;;;4.93;3.17;;;13.20;99.90;;;;;;5094092;28;20448;-67
2021/04/24 09:59:53;;;;;;;4.50;3.77;;;13.00;99.90;;;;;;5092339;28;20444;-67
2021/04/24 10:02:30;;;;;;;6.50;3.70;;;14.00;99.90;;;;;;5093806;28;20865;-67
2021/04/24 10:05:18;;;;;;;6.53;4.27;;;14.30;99.90;;;;;;5093371;28;20847;-67
2021/04/24 10:07:52;;;;;;;8.37;3.97;;;14.20;99.90;;;;;;5093574;28;20788;-67
2021/04/24 10:10:38;;;;;;;8.27;4.20;;;12.90;99.90;;;;;;5093479;28;20496;-67
2021/04/24 10:13:06;;;;;;;8.67;4.33;;;12.90;99.90;;;;;;5093599;28;20477;-67
2021/04/24 10:15:37;;;;;;;8.47;3.60;;;13.70;99.90;;;;;;5093386;28;20455;-67
2021/04/24 10:18:04;;;;;;;5.57;3.67;;;14.50;99.90;;;;;;5093383;28;20412;-67
2021/04/24 10:20:31;;;;;;;9.23;4.07;;;14.50;99.90;;;;;;5093524;28;20890;-67
2021/04/24 10:22:57;;;;;;;8.10;4.00;;;15.00;99.90;;;;;;5092892;28;20780;-67
2021/04/24 10:25:24;;;;;;;12.47;4.90;;;14.40;99.90;;;;;;5092997;28;20407;-68
2021/04/24 10:27:51;;;;;;;5.90;5.00;;;13.40;99.90;;;;;;5093452;28;20406;-67
2021/04/24 10:30:18;;;;;;;8.63;3.97;;;14.50;99.90;;;;;;5092995;28;20408;-67
2021/04/24 10:32:45;;;;;;;5.57;3.47;;;14.30;99.90;;;;;;5092935;28;20404;-67
2021/04/24 10:35:12;;;;;;;11.43;5.03;;;14.80;99.90;;;;;;5092634;28;20439;-67
2021/04/24 10:37:38;;;;;;;5.70;4.13;;;15.30;99.90;;;;;;5092822;28;20416;-67
2021/04/24 10:40:04;;;;;;;4.97;3.77;;;16.00;99.90;;;;;;5093275;28;20471;-68
2021/04/24 10:42:31;;;;;;;4.23;3.60;;;15.70;99.90;;;;;;5093038;28;20164;-68
2021/04/24 10:45:06;;;;;;;6.13;3.47;;;15.70;99.90;;;;;;5092773;28;20469;-67
2021/04/24 10:47:37;;;;;;;5.20;3.50;;;16.00;99.90;;;;;;5092811;28;20397;-67
2021/04/24 10:50:14;;;;;;;5.27;4.07;;;15.90;99.90;;;;;;5092751;28;20409;-67
2021/04/24 10:52:42;;;;;;;5.17;3.63;;;15.80;99.90;;;;;;5092750;28;20386;-67
2021/04/24 10:55:26;;;;;;;5.63;3.90;;;15.00;99.90;;;;;;5092501;28;20456;-67
2021/04/24 10:58:00;;;;;;;11.10;4.33;;;15.70;99.90;;;;;;5092977;28;20401;-67
2021/04/24 11:00:33;;;;;;;5.27;3.17;;;16.50;99.90;;;;;;5093042;28;20420;-67
2021/04/24 11:03:00;;;;;;;6.80;4.10;;;15.80;99.90;;;;;;5092732;28;20443;-68
2021/04/24 11:05:31;;;;;;;7.03;3.17;;;16.10;99.90;;;;;;5092879;28;20397;-67
2021/04/24 11:08:20;;;;;;;5.47;2.93;;;16.60;99.90;;;;;;5092478;28;20461;-67
2021/04/24 11:10:58;;;;;;;3.80;3.17;;;16.50;99.90;;;;;;5092841;28;20394;-68
2021/04/24 11:13:26;;;;;;;5.30;3.30;;;16.40;99.90;;;;;;5092661;28;20453;-67
2021/04/24 11:15:53;;;;;;;7.67;4.00;;;16.70;99.90;;;;;;5092871;28;20417;-68
2021/04/24 11:18:19;;;;;;;3.93;3.00;;;16.80;99.90;;;;;;5092544;28;20410;-67
2021/04/24 11:20:55;;;;;;;8.30;3.40;;;17.00;99.90;;;;;;5092496;28;20398;-67
2021/04/24 11:23:32;;;;;;;8.70;3.70;;;17.00;99.90;;;;;;5092506;28;20472;-67
2021/04/24 11:26:03;;;;;;;7.00;4.17;;;15.80;99.90;;;;;;5093048;28;20409;-67
2021/04/24 11:28:29;;;;;;;5.87;4.27;;;15.40;99.90;;;;;;5092455;28;20397;-67
2021/04/24 11:31:00;;;;;;;5.23;3.97;;;15.20;99.90;;;;;;5092412;28;20401;-68
2021/04/24 11:33:39;;;;;;;6.00;3.13;;;15.70;99.90;;;;;;5092388;28;20460;-67
2021/04/24 11:36:20;;;;;;;5.77;3.50;;;16.10;99.90;;;;;;5092999;28;20402;-67
2021/04/24 11:38:55;;;;;;;8.27;3.83;;;16.00;99.90;;;;;;5092456;28;20378;-68
2021/04/24 11:41:34;;;;;;;4.67;3.50;;;17.40;99.90;;;;;;5092565;28;20426;-67
2021/04/24 11:44:26;;;;;;;4.90;3.60;;;17.20;99.90;;;;;;5092321;28;20426;-68
2021/04/24 11:46:56;;;;;;;6.00;3.97;;;16.60;99.90;;;;;;5094461;28;20425;-67
2021/04/24 11:49:23;;;;;;;4.77;4.10;;;16.00;99.90;;;;;;5097010;28;20399;-68
2021/04/24 11:52:00;;;;;;;6.27;4.23;;;16.20;99.90;;;;;;5096224;28;20435;-67
2021/04/24 11:54:38;;;;;;;4.90;3.83;;;16.20;99.90;;;;;;5096669;28;20478;-68
2021/04/24 11:57:06;;;;;;;4.33;3.83;;;16.60;99.90;;;;;;5096703;28;20455;-67
2021/04/24 11:59:34;;;;;;;6.13;3.53;;;17.10;99.90;;;;;;5096502;28;20816;-68
2021/04/24 12:02:11;;;;;;;8.33;4.50;;;18.20;99.90;;;;;;5096303;28;20411;-67
2021/04/24 12:04:37;;;;;;;7.80;4.30;;;17.90;99.90;;;;;;5096021;28;20501;-67
2021/04/24 12:07:08;;;;;;;5.87;4.30;;;18.20;99.90;;;;;;5096159;28;20410;-66
2021/04/24 12:09:59;;;;;;;5.03;3.33;;;18.00;99.90;;;;;;5095793;28;20433;-66
2021/04/24 12:12:34;;;;;;;7.43;3.67;;;17.40;99.90;;;;;;5095798;28;20497;-67
2021/04/24 12:15:18;;;;;;;5.50;3.83;;;17.80;99.90;;;;;;5095489;28;20454;-67
2021/04/24 12:17:58;;;;;;;6.57;4.30;;;18.40;99.90;;;;;;5095579;28;20386;-66
2021/04/24 12:20:27;;;;;;;7.10;3.77;;;18.50;99.90;;;;;;5095653;28;20802;-68
2021/04/24 12:22:54;;;;;;;7.53;3.97;;;19.20;99.90;;;;;;5095562;28;20791;-67
2021/04/24 12:25:23;;;;;;;7.47;3.90;;;19.30;99.90;;;;;;5095723;28;20402;-67
2021/04/24 12:27:51;;;;;;;6.23;3.90;;;19.50;99.90;;;;;;5095278;28;20401;-66
2021/04/24 12:30:20;;;;;;;6.90;3.87;;;18.70;99.90;;;;;;5095556;28;20922;-67
2021/04/24 12:33:08;;;;;;;4.43;3.20;;;18.10;99.90;;;;;;5095414;28;20428;-67
2021/04/24 12:35:47;;;;;;;5.17;3.53;;;18.60;99.90;;;;;;5095243;28;20386;-67
2021/04/24 12:38:18;;;;;;;6.37;3.90;;;19.20;99.90;;;;;;5095573;28;20378;-67
2021/04/24 12:40:49;;;;;;;5.20;3.10;;;19.40;99.90;;;;;;5095873;28;20421;-67
2021/04/24 12:43:20;;;;;;;7.43;4.13;;;18.70;99.90;;;;;;5095535;28;20420;-67
2021/04/24 12:45:47;;;;;;;7.43;4.37;;;18.20;99.90;;;;;;5095302;28;20890;-67
2021/04/24 12:48:21;;;;;;;3.70;3.23;;;19.90;99.90;;;;;;5095175;28;20398;-67
2021/04/24 12:50:50;;;;;;;3.90;3.17;;;19.50;99.90;;;;;;5094858;28;20407;-67
2021/04/24 12:53:35;;;;;;;3.80;3.10;;;19.50;99.90;;;;;;5094732;28;20590;-67
2021/04/24 12:56:04;;;;;;;7.27;3.67;;;20.10;99.90;;;;;;5095155;28;20847;-67